createdAt,value
2022-12-31T00:00:02.758Z,15.18
2022-12-31T00:02:32.502Z,15.45
2022-12-31T00:04:59.939Z,14.55
2022-12-31T00:07:27.325Z,14.77
2022-12-31T00:09:54.837Z,15.35
2022-12-31T00:12:22.186Z,15.88
2022-12-31T00:14:49.560Z,13.82
2022-12-31T00:17:17.034Z,14.48
2022-12-31T00:19:44.538Z,12.85
2022-12-31T00:22:11.944Z,14.32
2022-12-31T00:24:39.414Z,14.75
2022-12-31T00:27:06.873Z,13.15
2022-12-31T00:29:34.286Z,12.93
2022-12-31T00:32:01.801Z,15.82
2022-12-31T00:34:29.215Z,16.27
2022-12-31T00:36:56.549Z,12.93
2022-12-31T00:39:23.884Z,13.93
2022-12-31T00:41:51.213Z,27.73
2022-12-31T00:44:18.746Z,13.05
2022-12-31T00:46:46.151Z,13.63
2022-12-31T00:49:13.874Z,13.02
2022-12-31T00:51:41.591Z,13.43
2022-12-31T00:54:10.106Z,12.90
2022-12-31T00:56:37.454Z,12.25
2022-12-31T00:59:04.896Z,13.85
2022-12-31T01:01:38.174Z,14.07
2022-12-31T01:04:12.451Z,13.98
2022-12-31T01:06:41.146Z,13.43
2022-12-31T01:09:08.587Z,14.27
2022-12-31T01:11:36.201Z,12.70
2022-12-31T01:14:07.392Z,17.92
2022-12-31T01:16:41.971Z,12.02
2022-12-31T01:19:12.817Z,13.00
2022-12-31T01:21:41.739Z,12.68
2022-12-31T01:24:10.798Z,13.10
2022-12-31T01:26:38.735Z,14.00
2022-12-31T01:29:07.172Z,12.85
2022-12-31T01:31:35.857Z,13.50
2022-12-31T01:34:04.057Z,12.85
2022-12-31T01:36:33.476Z,14.18
2022-12-31T01:39:02.489Z,11.38
2022-12-31T01:41:33.605Z,12.57
2022-12-31T01:44:22.703Z,13.77
2022-12-31T01:46:55.180Z,13.93
2022-12-31T01:49:35.323Z,11.55
2022-12-31T01:52:34.938Z,12.57
2022-12-31T01:55:12.284Z,11.07
2022-12-31T01:57:39.910Z,12.35
2022-12-31T02:00:07.795Z,13.02
2022-12-31T02:02:35.194Z,11.98
2022-12-31T02:05:09.980Z,12.88
2022-12-31T02:07:37.885Z,12.07
2022-12-31T02:10:05.871Z,12.57
2022-12-31T02:12:33.268Z,11.90
2022-12-31T02:15:01.051Z,11.48
2022-12-31T02:17:39.067Z,11.32
2022-12-31T02:20:27.342Z,12.20
2022-12-31T02:23:00.383Z,11.88
2022-12-31T02:25:52.372Z,11.25
2022-12-31T02:28:56.775Z,10.82
2022-12-31T02:31:26.827Z,12.63
2022-12-31T02:34:22.127Z,12.55
2022-12-31T02:36:52.775Z,14.02
2022-12-31T02:39:20.762Z,12.10
2022-12-31T02:41:51.853Z,10.82
2022-12-31T02:44:25.478Z,12.07
2022-12-31T02:47:08.076Z,11.88
2022-12-31T02:50:13.146Z,12.60
2022-12-31T02:53:04.069Z,11.70
2022-12-31T02:56:16.290Z,11.65
2022-12-31T02:59:12.402Z,11.23
2022-12-31T03:02:02.566Z,11.68
2022-12-31T03:04:33.472Z,11.23
2022-12-31T03:07:02.467Z,12.48
2022-12-31T03:09:29.906Z,12.25
2022-12-31T03:12:16.219Z,10.68
2022-12-31T03:14:43.911Z,12.15
2022-12-31T03:17:11.663Z,12.65
2022-12-31T03:19:57.634Z,12.68
2022-12-31T03:22:28.239Z,13.25
2022-12-31T03:25:17.255Z,10.80
2022-12-31T03:27:47.015Z,12.70
2022-12-31T03:30:16.541Z,10.60
2022-12-31T03:32:45.742Z,12.25
2022-12-31T03:35:14.598Z,12.40
2022-12-31T03:37:42.722Z,11.00
2022-12-31T03:40:12.326Z,11.63
2022-12-31T03:42:40.558Z,12.27
2022-12-31T03:45:09.729Z,11.15
2022-12-31T03:47:37.062Z,12.20
2022-12-31T03:50:06.436Z,13.07
2022-12-31T03:52:33.863Z,11.05
2022-12-31T03:55:04.260Z,12.32
2022-12-31T03:57:31.706Z,11.32
2022-12-31T03:59:59.375Z,12.05
2022-12-31T04:02:29.289Z,10.73
2022-12-31T04:04:56.985Z,10.88
2022-12-31T04:07:24.501Z,13.00
2022-12-31T04:09:51.856Z,12.05
2022-12-31T04:12:19.234Z,10.00
2022-12-31T04:14:46.659Z,11.68
2022-12-31T04:17:14.097Z,13.07
2022-12-31T04:19:41.492Z,11.27
2022-12-31T04:22:09.129Z,11.45
2022-12-31T04:24:36.487Z,10.55
2022-12-31T04:27:07.839Z,11.48
2022-12-31T04:29:36.002Z,11.55
2022-12-31T04:32:04.618Z,11.70
2022-12-31T04:34:32.623Z,10.30
2022-12-31T04:37:00.656Z,10.80
2022-12-31T04:39:28.500Z,11.75
2022-12-31T04:41:55.909Z,12.13
2022-12-31T04:44:23.287Z,11.07
2022-12-31T04:46:50.685Z,11.23
2022-12-31T04:49:18.107Z,8.90
2022-12-31T04:51:45.424Z,13.68
2022-12-31T04:54:12.795Z,12.02
2022-12-31T04:56:40.202Z,12.18
2022-12-31T04:59:08.877Z,10.07
2022-12-31T05:01:37.273Z,10.40
2022-12-31T05:04:04.963Z,11.77
2022-12-31T05:06:32.389Z,11.82
2022-12-31T05:09:01.765Z,10.48
2022-12-31T05:11:29.159Z,11.10
2022-12-31T05:13:56.490Z,10.27
2022-12-31T05:16:23.923Z,10.32
2022-12-31T05:18:51.432Z,10.75
2022-12-31T05:21:21.276Z,10.93
2022-12-31T05:23:49.250Z,9.70
2022-12-31T05:26:17.133Z,10.40
2022-12-31T05:28:44.683Z,10.57
2022-12-31T05:31:12.288Z,11.32
2022-12-31T05:33:39.757Z,11.35
2022-12-31T05:36:07.823Z,10.18
2022-12-31T05:38:35.433Z,10.27
2022-12-31T05:41:05.476Z,10.27
2022-12-31T05:43:33.016Z,14.60
2022-12-31T05:46:02.279Z,9.68
2022-12-31T05:48:30.676Z,12.23
2022-12-31T05:50:59.133Z,11.18
2022-12-31T05:53:26.660Z,9.40
2022-12-31T05:55:54.005Z,10.27
2022-12-31T05:58:21.504Z,12.00
2022-12-31T06:00:48.996Z,9.95
2022-12-31T06:03:16.436Z,10.88
2022-12-31T06:05:43.913Z,10.35
2022-12-31T06:08:12.224Z,10.75
2022-12-31T06:10:40.407Z,10.90
2022-12-31T06:13:08.317Z,11.32
2022-12-31T06:15:39.680Z,10.85
2022-12-31T06:18:07.809Z,10.25
2022-12-31T06:20:38.416Z,10.32
2022-12-31T06:23:06.129Z,9.00
2022-12-31T06:25:35.555Z,10.25
2022-12-31T06:28:04.583Z,10.32
2022-12-31T06:30:32.365Z,10.98
2022-12-31T06:32:59.923Z,12.25
2022-12-31T06:35:27.449Z,10.63
2022-12-31T06:37:54.854Z,11.25
2022-12-31T06:40:22.449Z,12.00
2022-12-31T06:42:56.044Z,9.57
2022-12-31T06:47:55.708Z,10.98
2022-12-31T06:50:23.283Z,10.32
2022-12-31T06:52:50.686Z,10.07
2022-12-31T06:55:18.427Z,10.18
2022-12-31T06:57:46.036Z,9.95
2022-12-31T07:00:14.056Z,9.90
2022-12-31T07:03:01.758Z,9.80
2022-12-31T07:05:41.566Z,10.30
2022-12-31T07:08:27.725Z,10.70
2022-12-31T07:11:04.034Z,10.73
2022-12-31T07:13:49.246Z,11.48
2022-12-31T07:16:36.285Z,9.52
2022-12-31T07:19:18.866Z,10.02
2022-12-31T07:21:48.645Z,12.00
2022-12-31T07:24:16.570Z,9.70
2022-12-31T07:27:12.926Z,9.88
2022-12-31T07:30:25.527Z,9.50
2022-12-31T07:33:18.359Z,10.32
2022-12-31T07:36:13.890Z,12.75
2022-12-31T07:39:00.894Z,11.07
2022-12-31T07:41:46.176Z,9.50
2022-12-31T07:44:34.143Z,11.68
2022-12-31T07:47:03.846Z,11.77
2022-12-31T07:49:33.776Z,11.30
2022-12-31T07:52:03.092Z,11.52
2022-12-31T07:54:30.438Z,10.57
2022-12-31T07:56:57.987Z,14.18
2022-12-31T07:59:53.014Z,12.02
2022-12-31T08:02:26.714Z,9.20
2022-12-31T08:05:06.540Z,12.30
2022-12-31T08:08:16.031Z,12.10
2022-12-31T08:11:16.575Z,8.98
2022-12-31T08:13:44.175Z,10.00
2022-12-31T08:16:14.037Z,12.68
2022-12-31T08:18:41.803Z,11.85
2022-12-31T08:21:29.540Z,10.38
2022-12-31T08:24:10.118Z,10.23
2022-12-31T08:26:53.384Z,11.45
2022-12-31T08:29:49.497Z,11.68
2022-12-31T08:32:28.647Z,10.55
2022-12-31T08:35:02.961Z,9.43
2022-12-31T08:37:52.357Z,13.43
2022-12-31T08:40:33.911Z,10.98
2022-12-31T08:43:12.660Z,10.77
2022-12-31T08:45:47.756Z,10.00
2022-12-31T08:48:24.106Z,9.15
2022-12-31T08:50:52.009Z,11.05
2022-12-31T08:53:19.716Z,9.98
2022-12-31T08:55:52.823Z,11.20
2022-12-31T08:58:32.695Z,11.20
2022-12-31T09:01:02.206Z,14.65
2022-12-31T09:03:45.117Z,10.40
2022-12-31T09:06:34.062Z,10.07
2022-12-31T09:09:10.454Z,9.90
2022-12-31T09:11:59.531Z,11.60
2022-12-31T09:14:36.071Z,12.73
2022-12-31T09:17:08.990Z,11.55
2022-12-31T09:19:36.744Z,13.27
2022-12-31T09:22:04.779Z,11.10
2022-12-31T09:24:32.596Z,11.20
2022-12-31T09:27:27.510Z,10.48
2022-12-31T09:30:12.039Z,9.35
2022-12-31T09:33:01.079Z,11.48
2022-12-31T09:35:42.356Z,9.43
2022-12-31T09:38:26.938Z,10.52
2022-12-31T09:41:14.613Z,9.27
2022-12-31T09:43:58.938Z,11.90
2022-12-31T09:46:34.103Z,10.60
2022-12-31T09:49:29.713Z,11.85
2022-12-31T09:52:19.246Z,9.05
2022-12-31T09:55:03.844Z,10.23
2022-12-31T09:57:49.340Z,9.70
2022-12-31T10:00:31.818Z,9.40
2022-12-31T10:03:08.305Z,11.93
2022-12-31T10:06:02.307Z,10.10
2022-12-31T10:08:41.671Z,10.13
2022-12-31T10:11:38.110Z,9.32
2022-12-31T10:14:46.972Z,8.13
2022-12-31T10:17:31.163Z,10.75
2022-12-31T10:20:12.611Z,15.90
2022-12-31T10:22:49.567Z,13.43
2022-12-31T10:30:19.983Z,9.00
2022-12-31T10:33:00.617Z,8.18
2022-12-31T10:35:54.692Z,9.68
2022-12-31T10:38:56.369Z,10.95
2022-12-31T10:41:37.581Z,10.45
2022-12-31T10:44:39.128Z,8.55
2022-12-31T10:47:21.531Z,10.95
2022-12-31T10:50:17.216Z,8.98
2022-12-31T10:52:50.640Z,7.85
2022-12-31T10:55:39.195Z,9.38
2022-12-31T10:58:21.667Z,9.27
2022-12-31T11:01:18.194Z,9.05
2022-12-31T11:03:56.037Z,6.95
2022-12-31T11:06:41.697Z,6.93
2022-12-31T11:09:35.037Z,9.85
2022-12-31T11:12:17.949Z,9.27
2022-12-31T11:15:00.672Z,11.18
2022-12-31T11:17:56.168Z,8.20
2022-12-31T11:20:41.861Z,7.18
2022-12-31T11:23:26.471Z,8.45
2022-12-31T11:26:16.916Z,7.22
2022-12-31T11:29:13.622Z,10.02
2022-12-31T11:31:58.213Z,8.48
2022-12-31T11:34:38.624Z,7.03
2022-12-31T11:37:31.422Z,9.95
2022-12-31T11:40:15.597Z,6.35
2022-12-31T11:43:16.988Z,7.20
2022-12-31T11:46:38.316Z,7.53
2022-12-31T11:49:28.975Z,7.40
2022-12-31T11:52:19.555Z,6.22
2022-12-31T11:55:18.603Z,6.50
2022-12-31T11:57:50.726Z,6.32
2022-12-31T12:00:26.336Z,7.63
2022-12-31T12:03:00.016Z,6.95
2022-12-31T12:05:28.287Z,7.40
2022-12-31T12:07:56.389Z,7.55
2022-12-31T12:10:47.078Z,5.47
2022-12-31T12:13:17.214Z,5.82
2022-12-31T12:16:00.190Z,7.70
2022-12-31T12:18:42.981Z,8.48
2022-12-31T12:21:16.088Z,6.97
2022-12-31T12:23:55.789Z,6.28
2022-12-31T12:26:44.493Z,5.82
2022-12-31T12:29:12.915Z,7.55
2022-12-31T12:31:41.076Z,5.20
2022-12-31T12:34:27.575Z,5.97
2022-12-31T12:36:55.161Z,6.67
2022-12-31T12:39:34.528Z,5.15
2022-12-31T12:42:14.465Z,5.60
2022-12-31T12:44:44.675Z,6.38
2022-12-31T12:47:16.008Z,5.05
2022-12-31T12:49:49.551Z,6.50
2022-12-31T12:52:45.806Z,6.03
2022-12-31T12:55:35.943Z,6.60
2022-12-31T12:58:21.908Z,6.15
2022-12-31T13:01:16.937Z,6.80
2022-12-31T13:07:10.189Z,6.00
2022-12-31T13:09:49.667Z,5.88
2022-12-31T13:13:13.338Z,8.23
2022-12-31T13:15:31.495Z,6.60
2022-12-31T13:18:23.570Z,5.57
2022-12-31T13:21:00.430Z,7.93
2022-12-31T13:26:39.529Z,6.55
2022-12-31T13:29:14.469Z,7.40
2022-12-31T13:31:43.041Z,12.80
2022-12-31T13:34:18.557Z,8.30
2022-12-31T13:36:48.859Z,8.63
2022-12-31T13:39:25.344Z,11.98
2022-12-31T13:41:59.433Z,10.68
2022-12-31T13:44:29.764Z,9.20
2022-12-31T13:47:12.937Z,11.63
2022-12-31T13:49:46.884Z,8.48
2022-12-31T13:52:33.344Z,10.57
2022-12-31T13:55:09.569Z,14.70
2022-12-31T13:58:09.455Z,12.40
2022-12-31T14:00:48.073Z,14.77
2022-12-31T14:03:25.005Z,11.48
2022-12-31T14:08:25.951Z,13.65
2022-12-31T14:11:28.960Z,11.55
2022-12-31T14:14:14.395Z,12.73
2022-12-31T14:16:54.034Z,12.07
2022-12-31T14:19:45.971Z,11.43
2022-12-31T14:22:41.517Z,12.50
2022-12-31T14:25:20.756Z,9.60
2022-12-31T14:27:51.023Z,10.57
2022-12-31T14:30:21.648Z,12.77
2022-12-31T14:33:25.264Z,13.18
2022-12-31T14:36:30.228Z,14.05
2022-12-31T14:39:10.133Z,18.67
2022-12-31T14:42:04.084Z,13.35
2022-12-31T14:44:43.883Z,9.93
2022-12-31T14:47:20.303Z,13.98
2022-12-31T14:50:11.793Z,12.68
2022-12-31T14:52:51.621Z,12.05
2022-12-31T14:55:40.798Z,12.15
2022-12-31T14:58:30.110Z,15.65
2022-12-31T15:01:00.299Z,8.30
2022-12-31T15:03:44.717Z,11.35
2022-12-31T15:06:34.047Z,10.73
2022-12-31T15:09:40.404Z,11.15
2022-12-31T15:12:23.623Z,8.93
2022-12-31T15:15:09.478Z,9.13
2022-12-31T15:17:49.569Z,10.43
2022-12-31T15:20:32.572Z,10.60
2022-12-31T15:23:00.126Z,11.63
2022-12-31T15:25:41.180Z,10.38
2022-12-31T15:28:29.369Z,9.93
2022-12-31T15:31:06.253Z,9.95
2022-12-31T15:36:21.702Z,10.38
2022-12-31T15:38:50.024Z,12.02
2022-12-31T15:41:20.407Z,11.52
2022-12-31T15:43:56.854Z,11.40
2022-12-31T15:46:33.105Z,11.70
2022-12-31T15:49:15.281Z,10.90
2022-12-31T15:51:55.659Z,12.80
2022-12-31T15:54:45.257Z,13.48
2022-12-31T15:57:36.693Z,11.70
2022-12-31T16:00:16.533Z,11.38
2022-12-31T16:02:45.387Z,12.60
2022-12-31T16:05:25.651Z,12.05
2022-12-31T16:07:59.239Z,12.77
2022-12-31T16:10:31.950Z,11.55
2022-12-31T16:12:59.935Z,12.05
2022-12-31T16:15:33.272Z,12.60
2022-12-31T16:18:09.517Z,12.48
2022-12-31T16:20:48.477Z,12.73
2022-12-31T16:23:26.366Z,12.52
2022-12-31T16:25:58.891Z,12.98
2022-12-31T16:28:32.313Z,14.73
2022-12-31T16:31:05.999Z,12.65
2022-12-31T16:33:34.315Z,13.25
2022-12-31T16:36:02.022Z,12.20
2022-12-31T16:38:37.307Z,13.07
2022-12-31T16:41:07.855Z,12.68
2022-12-31T16:43:41.272Z,14.00
2022-12-31T16:46:14.419Z,15.60
2022-12-31T16:48:49.808Z,13.90
2022-12-31T16:51:21.486Z,15.38
2022-12-31T16:53:49.727Z,13.82
2022-12-31T16:56:26.285Z,13.25
2022-12-31T16:59:03.390Z,16.48
2022-12-31T17:01:35.721Z,15.48
2022-12-31T17:04:09.647Z,13.40
2022-12-31T17:06:37.353Z,14.70
2022-12-31T17:09:09.982Z,13.85
2022-12-31T17:11:50.474Z,15.25
2022-12-31T17:14:23.047Z,15.18
2022-12-31T17:17:04.219Z,20.90
2022-12-31T17:19:47.564Z,14.55
2022-12-31T17:22:31.580Z,15.50
2022-12-31T17:25:06.477Z,16.30
2022-12-31T17:27:35.785Z,13.85
2022-12-31T17:30:23.616Z,14.52
2022-12-31T17:32:53.176Z,14.57
2022-12-31T17:35:31.721Z,15.25
2022-12-31T17:38:17.933Z,13.02
2022-12-31T17:40:52.000Z,14.02
2022-12-31T17:43:22.296Z,17.30
2022-12-31T17:45:54.796Z,15.85
2022-12-31T17:48:25.044Z,15.43
2022-12-31T17:50:58.127Z,16.50
2022-12-31T17:53:26.663Z,18.52
2022-12-31T17:55:57.129Z,15.55
2022-12-31T17:58:29.968Z,18.27
2022-12-31T18:00:58.615Z,17.17
2022-12-31T18:03:26.068Z,17.92
2022-12-31T18:05:54.597Z,17.13
2022-12-31T18:08:22.352Z,15.93
2022-12-31T18:10:51.335Z,16.90
2022-12-31T18:13:24.490Z,25.15
2022-12-31T18:15:52.345Z,18.05
2022-12-31T18:18:26.183Z,15.98
2022-12-31T18:20:59.317Z,24.27
2022-12-31T18:23:31.145Z,18.40
2022-12-31T18:25:58.679Z,18.98
2022-12-31T18:28:26.250Z,19.15
2022-12-31T18:30:53.895Z,17.38
2022-12-31T18:33:25.779Z,22.23
2022-12-31T18:36:10.239Z,17.38
2022-12-31T18:38:39.279Z,17.38
2022-12-31T18:41:11.198Z,15.50
2022-12-31T18:43:38.801Z,17.17
2022-12-31T18:46:06.211Z,18.73
2022-12-31T18:48:33.756Z,16.13
2022-12-31T18:51:01.837Z,17.92
2022-12-31T18:53:29.221Z,20.35
2022-12-31T18:55:57.648Z,20.60
2022-12-31T18:58:25.099Z,16.75
2022-12-31T19:00:52.728Z,17.35
2022-12-31T19:03:24.048Z,17.88
2022-12-31T19:05:52.167Z,17.35
2022-12-31T19:08:21.901Z,17.73
2022-12-31T19:10:51.439Z,16.42
2022-12-31T19:13:20.272Z,18.45
2022-12-31T19:15:51.417Z,19.08
2022-12-31T19:18:19.540Z,15.48
2022-12-31T19:20:47.342Z,17.85
2022-12-31T19:23:17.871Z,19.55
2022-12-31T19:25:47.000Z,15.40
2022-12-31T19:28:25.499Z,16.33
2022-12-31T19:30:53.096Z,16.98
2022-12-31T19:33:20.613Z,17.35
2022-12-31T19:35:48.447Z,16.17
2022-12-31T19:38:19.395Z,19.58
2022-12-31T19:40:48.050Z,16.20
2022-12-31T19:43:17.419Z,18.38
2022-12-31T19:45:45.624Z,16.10
2022-12-31T19:48:18.173Z,18.23
2022-12-31T19:50:51.401Z,16.83
2022-12-31T19:53:22.377Z,15.88
2022-12-31T19:55:50.479Z,16.35
2022-12-31T19:58:20.934Z,17.02
2022-12-31T20:00:54.860Z,14.30
2022-12-31T20:03:26.199Z,16.48
2022-12-31T20:06:08.730Z,17.85
2022-12-31T20:08:37.921Z,16.50
2022-12-31T20:11:17.488Z,18.33
2022-12-31T20:13:46.332Z,18.65
2022-12-31T20:16:17.279Z,16.15
2022-12-31T20:18:46.658Z,17.00
2022-12-31T20:21:18.406Z,17.05
2022-12-31T20:23:46.998Z,18.30
2022-12-31T20:26:14.570Z,14.73
2022-12-31T20:28:42.414Z,21.80
2022-12-31T20:31:13.669Z,16.00
2022-12-31T20:33:41.755Z,16.33
2022-12-31T20:36:11.484Z,15.93
2022-12-31T20:38:38.875Z,16.23
2022-12-31T20:41:17.927Z,15.65
2022-12-31T20:43:46.131Z,16.50
2022-12-31T20:46:19.984Z,16.25
2022-12-31T20:48:49.028Z,17.25
2022-12-31T20:51:17.526Z,14.98
2022-12-31T20:53:55.356Z,15.35
2022-12-31T20:56:24.186Z,16.85
2022-12-31T20:58:51.751Z,17.50
2022-12-31T21:01:20.038Z,15.57
2022-12-31T21:04:05.995Z,17.70
2022-12-31T21:06:35.567Z,15.70
2022-12-31T21:09:05.508Z,15.98
2022-12-31T21:11:52.188Z,15.13
2022-12-31T21:14:19.977Z,15.90
2022-12-31T21:16:47.393Z,14.43
2022-12-31T21:19:14.856Z,14.65
2022-12-31T21:21:42.424Z,17.13
2022-12-31T21:24:10.009Z,15.95
2022-12-31T21:26:37.413Z,15.57
2022-12-31T21:29:04.830Z,14.10
2022-12-31T21:31:32.258Z,16.13
2022-12-31T21:33:59.704Z,15.40
2022-12-31T21:36:27.667Z,13.93
2022-12-31T21:38:55.293Z,15.20
2022-12-31T21:41:41.650Z,15.57
2022-12-31T21:44:09.196Z,17.33
2022-12-31T21:46:36.939Z,13.63
2022-12-31T21:49:04.394Z,14.48
2022-12-31T21:51:31.940Z,13.95
2022-12-31T21:53:59.335Z,19.48
2022-12-31T21:56:26.641Z,14.95
2022-12-31T21:59:15.324Z,16.58
2022-12-31T22:02:01.830Z,14.65
2022-12-31T22:07:17.261Z,13.98
2022-12-31T22:09:44.628Z,14.30
2022-12-31T22:12:12.379Z,15.30
2022-12-31T22:14:40.012Z,16.33
2022-12-31T22:17:27.485Z,13.73
2022-12-31T22:25:10.394Z,13.40
2022-12-31T22:27:37.858Z,15.32
2022-12-31T22:30:06.213Z,14.63
2022-12-31T22:32:33.539Z,13.88
2022-12-31T22:35:00.945Z,14.20
2022-12-31T22:37:55.545Z,12.75
2022-12-31T22:40:17.204Z,15.10
2022-12-31T22:42:44.569Z,13.70
2022-12-31T22:45:11.988Z,14.07
2022-12-31T22:47:39.547Z,12.30
2022-12-31T22:50:07.619Z,14.50
2022-12-31T22:52:35.090Z,13.57
2022-12-31T22:55:02.663Z,12.07
2022-12-31T22:57:30.187Z,12.80
2022-12-31T22:59:57.646Z,13.50
2022-12-31T23:02:25.151Z,13.18
2022-12-31T23:04:52.977Z,12.73
2022-12-31T23:07:42.565Z,13.68
2022-12-31T23:10:29.633Z,13.27
2022-12-31T23:12:58.734Z,12.82
2022-12-31T23:15:44.898Z,14.10
2022-12-31T23:18:31.228Z,14.85
2022-12-31T23:21:17.323Z,13.55
2022-12-31T23:23:44.639Z,13.70
2022-12-31T23:26:12.029Z,13.90
2022-12-31T23:28:41.878Z,13.38
2022-12-31T23:31:09.516Z,13.45
2022-12-31T23:33:36.914Z,13.05
2022-12-31T23:36:05.972Z,15.95
2022-12-31T23:38:33.523Z,15.30
2022-12-31T23:41:00.920Z,15.05
2022-12-31T23:43:28.306Z,14.38
2022-12-31T23:45:55.690Z,15.32
2022-12-31T23:48:23.386Z,16.23
2022-12-31T23:50:54.490Z,14.23
2022-12-31T23:53:23.234Z,15.40
2022-12-31T23:55:51.775Z,13.77
2022-12-31T23:58:19.820Z,14.25
